Pagrindinis puslapis
METAR-TAF:

METAR-TAF

Oro uostai :

Trevizas, Italija

platuma: 45-41N, ilguma: 012-06E, Aukštis: 45 m

Dabartinis oras

Ataskaita buvo paskelbta 47 minutes, ne 10:55 UTC
Temperatūra 23°C
Drėgmė 41%
Slėgis 1024 hPa
Matomumas 10 km arba daugiau
nėra debesų žemiau 1500 m ir nėra kamuolinių lietaus debesų

METAR: LIPS 211055Z /////KT CAVOK 23/09 Q1024 RMK SKC VIS MIN 9999 WIND THR26 15003KT WIND THR08 06005KT BLU

Laikas: 13:42 (11:42 UTC)

Prognozė

Ataskaita buvo paskelbta 6 valandos ir 42 minutes, ne 05:00 UTC
Prognozė galioja nuo 21 metu 06 UTC su 21 metu 15 UTC
Vėjas 5 kt iš Šiaurės/Šiaurės Rytų
Matomumas 10 km arba daugiau
nėra debesų žemiau 1500 m ir nėra kamuolinių lietaus debesų

TAF: LIPS 210500Z 2106/2115 03005KT CAVOK

Orai ataskaitas ir orų prognozės (METAR, TAF).

turimą stotys yra geltonos ir raudonos taškus žemėlapyje.

Perkelti pele per norėdami pamatyti stoties vardą.

Tada spustelėkite, norėdami matyti oro stebėjimo ir prognozės.

Norėdami pakeisti žemėlapį: spustelėkite ant žalios mygtukų su juodo kryžiaus žemyn,; žalią mygtuką su brūkšneliu, jei norite nutolinti; arba žalių rodyklių gretimoms žemėlapius.


METAR-TAF: